createdAt,value
2018-08-06T00:00:24.985Z,90.50
2018-08-06T00:02:53.321Z,90.50
2018-08-06T00:05:21.709Z,90.90
2018-08-06T00:07:50.037Z,91.00
2018-08-06T00:10:19.878Z,90.50
2018-08-06T00:12:48.232Z,90.60
2018-08-06T00:15:16.749Z,90.80
2018-08-06T00:17:45.172Z,91.10
2018-08-06T00:20:14.235Z,91.30
2018-08-06T00:22:42.986Z,91.80
2018-08-06T00:25:12.706Z,91.60
2018-08-06T00:27:41.924Z,91.30
2018-08-06T00:30:11.786Z,91.20
2018-08-06T00:32:41.328Z,91.30
2018-08-06T00:35:10.416Z,91.80
2018-08-06T00:37:38.890Z,91.60
2018-08-06T00:40:15.795Z,91.90
2018-08-06T00:42:44.986Z,91.90
2018-08-06T00:45:15.433Z,91.90
2018-08-06T00:47:44.383Z,91.90
2018-08-06T00:50:12.917Z,91.70
2018-08-06T00:52:41.266Z,92.00
2018-08-06T00:55:14.151Z,92.00
2018-08-06T00:57:42.693Z,92.00
2018-08-06T01:00:13.578Z,92.20
2018-08-06T01:02:41.956Z,92.40
2018-08-06T01:05:11.532Z,92.40
2018-08-06T01:07:40.361Z,92.40
2018-08-06T01:10:10.682Z,92.50
2018-08-06T01:12:40.085Z,92.40
2018-08-06T01:15:10.485Z,92.40
2018-08-06T01:17:38.844Z,92.60
2018-08-06T01:20:08.960Z,91.90
2018-08-06T01:22:37.311Z,92.10
2018-08-06T01:25:05.809Z,92.60
2018-08-06T01:27:34.838Z,93.00
2018-08-06T01:30:03.556Z,93.10
2018-08-06T01:32:31.932Z,92.80
2018-08-06T01:35:00.295Z,92.90
2018-08-06T01:37:28.638Z,93.00
2018-08-06T01:39:56.979Z,93.20
2018-08-06T01:42:25.316Z,93.50
2018-08-06T01:44:53.764Z,93.30
2018-08-06T01:47:22.124Z,93.40
2018-08-06T01:49:50.517Z,93.40
2018-08-06T01:52:18.885Z,93.40
2018-08-06T01:54:47.274Z,93.60
2018-08-06T01:57:15.660Z,93.80
2018-08-06T01:59:44.153Z,93.80
2018-08-06T02:02:12.521Z,94.00
2018-08-06T02:04:40.893Z,94.00
2018-08-06T02:07:09.435Z,93.80
2018-08-06T02:09:38.078Z,94.00
2018-08-06T02:12:06.649Z,94.00
2018-08-06T02:14:35.026Z,94.00
2018-08-06T02:17:03.408Z,94.10
2018-08-06T02:19:31.763Z,94.20
2018-08-06T02:22:00.077Z,94.10
2018-08-06T02:24:28.464Z,94.30
2018-08-06T02:26:57.022Z,94.40
2018-08-06T02:29:25.307Z,94.20
2018-08-06T02:31:53.616Z,94.60
2018-08-06T02:34:21.964Z,94.90
2018-08-06T02:36:50.297Z,95.30
2018-08-06T02:39:18.753Z,95.60
2018-08-06T02:41:47.110Z,95.40
2018-08-06T02:44:15.505Z,95.90
2018-08-06T02:46:43.897Z,96.20
2018-08-06T02:49:12.277Z,96.50
2018-08-06T02:51:40.621Z,96.00
2018-08-06T02:54:08.985Z,96.50
2018-08-06T02:56:37.387Z,96.90
2018-08-06T02:59:05.717Z,97.00
2018-08-06T03:01:34.114Z,97.00
2018-08-06T03:04:02.449Z,96.90
2018-08-06T03:06:30.797Z,97.20
2018-08-06T03:08:59.314Z,97.30
2018-08-06T03:11:27.721Z,97.30
2018-08-06T03:13:56.537Z,96.90
2018-08-06T03:16:24.947Z,96.80
2018-08-06T03:18:53.324Z,97.10
2018-08-06T03:21:21.717Z,97.40
2018-08-06T03:23:50.037Z,97.30
2018-08-06T03:26:18.507Z,97.60
2018-08-06T03:28:46.877Z,97.80
2018-08-06T03:31:15.231Z,97.60
2018-08-06T03:33:43.621Z,97.70
2018-08-06T03:36:11.945Z,97.80
2018-08-06T03:38:40.322Z,97.90
2018-08-06T03:41:08.789Z,97.80
2018-08-06T03:43:37.143Z,97.80
2018-08-06T03:46:05.491Z,97.90
2018-08-06T03:48:33.872Z,97.80
2018-08-06T03:51:02.217Z,97.80
2018-08-06T03:53:30.541Z,97.80
2018-08-06T03:55:58.913Z,98.00
2018-08-06T03:58:27.293Z,98.20
2018-08-06T04:00:55.630Z,98.20
2018-08-06T04:03:24.025Z,98.30
2018-08-06T04:05:52.387Z,98.30
2018-08-06T04:08:20.736Z,98.50
2018-08-06T04:10:49.084Z,98.70
2018-08-06T04:13:17.494Z,99.00
2018-08-06T04:15:45.852Z,99.20
2018-08-06T04:18:14.148Z,99.70
2018-08-06T04:20:42.470Z,99.70
2018-08-06T04:23:10.804Z,99.70
2018-08-06T04:25:39.179Z,99.70
2018-08-06T04:28:07.557Z,99.60
2018-08-06T04:30:35.912Z,99.40
2018-08-06T04:33:04.337Z,99.40
2018-08-06T04:35:32.637Z,99.60
2018-08-06T04:38:01.203Z,99.20
2018-08-06T04:40:29.513Z,99.00
2018-08-06T04:42:57.848Z,98.70
2018-08-06T04:45:26.195Z,98.20
2018-08-06T04:47:54.566Z,97.70
2018-08-06T04:50:22.948Z,97.40
2018-08-06T04:52:51.289Z,97.20
2018-08-06T04:55:20.037Z,97.10
2018-08-06T04:57:48.445Z,97.00
2018-08-06T05:00:16.835Z,97.00
2018-08-06T05:02:45.431Z,96.90
2018-08-06T05:05:13.889Z,97.10
2018-08-06T05:07:42.265Z,97.10
2018-08-06T05:10:10.606Z,97.30
2018-08-06T05:12:38.945Z,97.50
2018-08-06T05:15:07.291Z,97.60
2018-08-06T05:17:35.632Z,97.10
2018-08-06T05:20:04.391Z,97.20
2018-08-06T05:22:32.752Z,96.70
2018-08-06T05:25:01.081Z,96.60
2018-08-06T05:27:29.428Z,96.50
2018-08-06T05:29:57.825Z,96.30
2018-08-06T05:32:26.237Z,96.10
2018-08-06T05:34:54.649Z,95.90
2018-08-06T05:37:23.022Z,95.80
2018-08-06T05:39:51.943Z,94.90
2018-08-06T05:42:20.286Z,94.50
2018-08-06T05:44:48.723Z,93.90
2018-08-06T05:47:17.130Z,93.60
2018-08-06T05:49:45.502Z,93.20
2018-08-06T05:52:13.886Z,92.70
2018-08-06T05:54:42.261Z,92.30
2018-08-06T05:57:10.762Z,92.00
2018-08-06T05:59:39.160Z,91.40
2018-08-06T06:02:07.621Z,91.40
2018-08-06T06:04:35.932Z,91.00
2018-08-06T06:07:04.373Z,91.00
2018-08-06T06:09:32.729Z,91.30
2018-08-06T06:12:01.089Z,90.80
2018-08-06T06:14:29.486Z,90.20
2018-08-06T06:16:57.910Z,89.70
2018-08-06T06:19:26.251Z,90.10
2018-08-06T06:21:54.653Z,88.60
2018-08-06T06:24:23.047Z,89.00
2018-08-06T06:26:51.405Z,88.20
2018-08-06T06:29:19.835Z,88.90
2018-08-06T06:31:48.194Z,89.80
2018-08-06T06:34:16.577Z,88.80
2018-08-06T06:36:44.951Z,88.40
2018-08-06T06:39:13.325Z,87.40
2018-08-06T06:41:41.667Z,87.20
2018-08-06T06:44:10.369Z,87.00
2018-08-06T06:46:39.380Z,86.50
2018-08-06T06:49:08.302Z,86.50
2018-08-06T06:51:36.645Z,87.20
2018-08-06T06:54:05.424Z,86.20
2018-08-06T06:56:33.857Z,85.90
2018-08-06T06:59:02.186Z,85.50
2018-08-06T07:01:30.611Z,85.60
2018-08-06T07:03:58.993Z,84.90
2018-08-06T07:06:27.442Z,84.50
2018-08-06T07:08:55.768Z,84.80
2018-08-06T07:11:24.133Z,84.70
2018-08-06T07:13:52.910Z,84.40
2018-08-06T07:16:21.188Z,83.00
2018-08-06T07:18:49.545Z,82.80
2018-08-06T07:21:17.943Z,82.50
2018-08-06T07:23:46.340Z,82.70
2018-08-06T07:26:17.067Z,82.10
2018-08-06T07:28:52.809Z,80.50
2018-08-06T07:37:21.574Z,79.50
2018-08-06T07:39:51.632Z,79.40
2018-08-06T07:42:28.236Z,79.10
2018-08-06T07:45:07.248Z,79.00
2018-08-06T07:48:12.407Z,78.30
2018-08-06T07:51:21.298Z,78.20
2018-08-06T07:53:54.827Z,77.70
2018-08-06T08:02:30.996Z,77.90
2018-08-06T08:05:01.819Z,77.20
2018-08-06T08:07:32.028Z,77.00
2018-08-06T08:10:37.093Z,76.10
2018-08-06T08:16:09.013Z,76.20
2018-08-06T08:18:46.908Z,76.60
2018-08-06T08:21:19.150Z,76.50
2018-08-06T08:24:08.188Z,75.80
2018-08-06T08:26:42.913Z,75.70
2018-08-06T08:29:11.651Z,74.90
2018-08-06T08:32:44.456Z,74.10
2018-08-06T08:41:08.940Z,74.30
2018-08-06T08:43:43.497Z,74.10
2018-08-06T08:46:32.249Z,71.80
2018-08-06T08:49:12.469Z,71.40
2018-08-06T08:54:44.275Z,70.90
2018-08-06T08:57:32.773Z,70.20
2018-08-06T09:04:52.417Z,69.10
2018-08-06T09:09:22.011Z,69.40
2018-08-06T10:53:49.892Z,66.10
2018-08-06T10:56:18.340Z,52.50
2018-08-06T10:58:47.176Z,52.50
2018-08-06T11:01:16.222Z,52.70
2018-08-06T11:03:44.674Z,52.70
2018-08-06T11:06:13.647Z,52.40
2018-08-06T11:08:42.182Z,51.00
2018-08-06T11:11:10.580Z,50.10
2018-08-06T11:13:39.262Z,50.90
2018-08-06T11:16:07.629Z,48.50
2018-08-06T11:18:36.181Z,48.50
2018-08-06T11:21:04.585Z,48.00
2018-08-06T11:23:33.074Z,47.60
2018-08-06T11:26:01.430Z,48.50
2018-08-06T11:28:29.966Z,47.40
2018-08-06T11:30:58.413Z,47.20
2018-08-06T11:33:26.833Z,47.40
2018-08-06T11:35:55.333Z,47.30
2018-08-06T11:38:24.119Z,47.70
2018-08-06T11:40:52.856Z,47.70
2018-08-06T11:43:21.233Z,48.90
2018-08-06T11:45:49.623Z,48.70
2018-08-06T11:48:18.093Z,47.50
2018-08-06T11:50:46.855Z,47.50
2018-08-06T11:53:15.979Z,46.60
2018-08-06T11:55:44.741Z,47.30
2018-08-06T11:58:13.315Z,45.60
2018-08-06T12:00:46.747Z,45.30
2018-08-06T12:03:15.918Z,44.60
2018-08-06T12:05:46.557Z,44.50
2018-08-06T12:08:15.908Z,44.60
2018-08-06T12:10:45.352Z,43.40
2018-08-06T12:13:13.930Z,42.70
2018-08-06T12:15:43.140Z,41.90
2018-08-06T12:18:11.787Z,40.90
2018-08-06T12:20:40.355Z,41.80
2018-08-06T12:23:08.993Z,41.60
2018-08-06T12:25:38.704Z,42.20
2018-08-06T12:28:07.279Z,43.00
2018-08-06T12:30:35.645Z,42.80
2018-08-06T12:33:06.811Z,42.80
2018-08-06T12:35:35.842Z,42.00
2018-08-06T12:38:04.237Z,40.00
2018-08-06T12:40:32.659Z,39.10
2018-08-06T12:43:01.159Z,38.90
2018-08-06T12:45:29.919Z,39.80
2018-08-06T12:47:58.671Z,37.80
2018-08-06T12:50:27.402Z,38.00
2018-08-06T12:52:58.461Z,36.80
2018-08-06T12:55:26.943Z,36.10
2018-08-06T12:57:58.762Z,34.70
2018-08-06T13:00:28.570Z,34.90
2018-08-06T13:02:57.766Z,33.40
2018-08-06T13:05:26.956Z,32.60
2018-08-06T13:12:54.858Z,33.20
2018-08-06T13:15:24.433Z,33.40
2018-08-06T13:17:53.362Z,32.70
2018-08-06T13:20:22.008Z,33.60
2018-08-06T13:22:50.645Z,33.50
2018-08-06T13:25:19.129Z,33.10
2018-08-06T13:27:47.788Z,32.70
2018-08-06T13:30:16.410Z,32.40
2018-08-06T13:32:45.461Z,32.40
2018-08-06T13:35:15.245Z,33.30
2018-08-06T13:37:45.645Z,33.40
2018-08-06T13:40:15.418Z,33.80
2018-08-06T13:42:43.940Z,33.90
2018-08-06T13:45:13.341Z,33.90
2018-08-06T13:47:41.981Z,34.00
2018-08-06T13:50:11.051Z,34.30
2018-08-06T13:52:39.413Z,34.70
2018-08-06T13:55:10.410Z,35.00
2018-08-06T13:57:39.084Z,34.50
2018-08-06T14:00:12.694Z,34.10
2018-08-06T14:02:41.931Z,33.60
2018-08-06T14:05:11.694Z,33.30
2018-08-06T14:07:39.984Z,33.80
2018-08-06T14:10:09.168Z,33.10
2018-08-06T14:12:38.242Z,33.00
2018-08-06T14:15:08.070Z,33.70
2018-08-06T14:17:36.679Z,33.20
2018-08-06T14:20:06.100Z,32.50
2018-08-06T14:22:34.984Z,33.00
2018-08-06T14:25:03.346Z,33.70
2018-08-06T14:27:31.725Z,34.40
2018-08-06T14:30:00.333Z,34.40
2018-08-06T14:32:28.664Z,33.90
2018-08-06T14:34:57.010Z,33.60
2018-08-06T14:37:25.443Z,34.00
2018-08-06T14:39:54.057Z,34.30
2018-08-06T14:42:22.508Z,34.00
2018-08-06T14:44:50.856Z,32.90
2018-08-06T14:47:19.205Z,32.90
2018-08-06T14:49:47.552Z,33.10
2018-08-06T14:52:15.925Z,32.90
2018-08-06T14:54:44.275Z,32.80
2018-08-06T14:57:12.616Z,32.70
2018-08-06T14:59:41.224Z,32.50
2018-08-06T15:02:09.651Z,31.10
2018-08-06T15:04:37.960Z,32.10
2018-08-06T15:07:06.425Z,31.20
2018-08-06T15:09:34.787Z,30.30
2018-08-06T15:12:03.478Z,30.30
2018-08-06T15:14:32.226Z,31.10
2018-08-06T15:17:00.826Z,31.80
2018-08-06T15:19:29.403Z,31.30
2018-08-06T15:21:57.773Z,31.70
2018-08-06T15:24:26.189Z,30.70
2018-08-06T15:26:54.537Z,31.10
2018-08-06T15:29:22.923Z,31.20
2018-08-06T15:31:51.342Z,31.90
2018-08-06T15:34:19.661Z,31.50
2018-08-06T15:36:48.201Z,31.60
2018-08-06T15:39:16.854Z,32.00
2018-08-06T15:41:45.213Z,31.40
2018-08-06T15:46:41.768Z,31.30
2018-08-06T15:49:10.150Z,30.90
2018-08-06T15:51:38.542Z,30.40
2018-08-06T15:54:06.976Z,29.80
2018-08-06T15:56:35.317Z,29.30
2018-08-06T15:59:03.722Z,28.70
2018-08-06T16:01:32.054Z,28.50
2018-08-06T16:04:00.511Z,27.20
2018-08-06T16:06:29.093Z,26.90
2018-08-06T16:08:57.465Z,27.60
2018-08-06T16:11:25.813Z,27.80
2018-08-06T16:13:54.151Z,28.20
2018-08-06T16:16:22.537Z,27.90
2018-08-06T16:18:50.913Z,28.30
2018-08-06T16:21:19.237Z,28.70
2018-08-06T16:23:47.692Z,28.90
2018-08-06T16:26:16.095Z,27.60
2018-08-06T16:28:44.403Z,27.80
2018-08-06T16:31:12.802Z,27.50
2018-08-06T16:33:41.145Z,27.20
2018-08-06T16:36:09.531Z,26.80
2018-08-06T16:38:37.872Z,26.90
2018-08-06T16:41:06.345Z,26.10
2018-08-06T16:43:34.747Z,25.80
2018-08-06T16:46:03.152Z,26.20
2018-08-06T16:48:31.573Z,26.10
2018-08-06T16:50:59.917Z,25.70
2018-08-06T16:53:28.328Z,25.80
2018-08-06T16:55:56.723Z,25.80
2018-08-06T16:58:25.123Z,25.70
2018-08-06T17:00:53.609Z,26.00
2018-08-06T17:03:21.928Z,26.00
2018-08-06T17:05:50.298Z,25.60
2018-08-06T17:08:18.697Z,26.60
2018-08-06T17:10:47.045Z,27.00
2018-08-06T17:13:15.422Z,27.90
2018-08-06T17:15:43.789Z,29.20
2018-08-06T17:18:12.205Z,29.90
2018-08-06T17:20:40.616Z,30.30
2018-08-06T17:23:09.068Z,30.60
2018-08-06T17:25:37.448Z,30.60
2018-08-06T17:28:06.061Z,30.90
2018-08-06T17:30:34.536Z,30.80
2018-08-06T17:33:02.852Z,30.70
2018-08-06T17:35:31.194Z,31.20
2018-08-06T17:37:59.568Z,31.80
2018-08-06T17:40:27.972Z,32.30
2018-08-06T17:42:56.442Z,32.30
2018-08-06T17:45:24.777Z,32.50
2018-08-06T17:47:53.197Z,32.70
2018-08-06T17:50:22.497Z,32.70
2018-08-06T17:52:51.680Z,32.80
2018-08-06T17:55:20.893Z,33.20
2018-08-06T17:57:49.367Z,33.50
2018-08-06T18:00:18.186Z,33.50
2018-08-06T18:02:46.786Z,33.20
2018-08-06T18:05:15.967Z,33.40
2018-08-06T18:07:44.687Z,33.20
2018-08-06T18:10:15.272Z,33.20
2018-08-06T18:12:44.364Z,33.40
2018-08-06T18:15:12.757Z,33.10
2018-08-06T18:17:41.064Z,33.80
2018-08-06T18:20:13.733Z,34.20
2018-08-06T18:22:42.186Z,34.10
2018-08-06T18:25:15.503Z,34.20
2018-08-06T18:27:44.869Z,34.50
2018-08-06T18:30:15.408Z,35.10
2018-08-06T18:32:43.792Z,35.30
2018-08-06T18:35:13.725Z,35.30
2018-08-06T18:37:42.205Z,35.50
2018-08-06T18:40:11.536Z,35.90
2018-08-06T18:42:40.071Z,36.40
2018-08-06T18:45:12.817Z,36.40
2018-08-06T18:47:42.022Z,36.80
2018-08-06T18:50:11.773Z,37.10
2018-08-06T18:52:40.294Z,37.40
2018-08-06T18:55:10.417Z,37.70
2018-08-06T18:57:38.970Z,37.70
2018-08-06T19:00:11.577Z,37.80
2018-08-06T19:02:39.938Z,38.50
2018-08-06T19:05:08.817Z,38.60
2018-08-06T19:07:37.211Z,38.80
2018-08-06T19:10:06.639Z,39.10
2018-08-06T19:12:40.246Z,39.40
2018-08-06T19:15:08.637Z,39.60
2018-08-06T19:17:42.483Z,39.70
2018-08-06T19:20:10.789Z,40.40
2018-08-06T19:22:39.270Z,40.50
2018-08-06T19:25:13.070Z,41.20
2018-08-06T19:27:41.825Z,41.70
2018-08-06T19:30:10.418Z,42.40
2018-08-06T19:32:38.880Z,42.70
2018-08-06T19:35:07.339Z,43.00
2018-08-06T19:37:51.594Z,43.30
2018-08-06T19:40:20.060Z,42.90
2018-08-06T19:42:53.883Z,44.00
2018-08-06T19:45:22.308Z,44.40
2018-08-06T19:47:50.692Z,44.40
2018-08-06T19:50:24.400Z,44.80
2018-08-06T19:52:52.718Z,45.80
2018-08-06T19:55:26.524Z,45.80
2018-08-06T19:57:55.066Z,46.10
2018-08-06T20:00:23.448Z,46.00
2018-08-06T20:02:51.820Z,46.30
2018-08-06T20:05:20.181Z,46.50
2018-08-06T20:07:48.684Z,46.40
2018-08-06T20:10:16.961Z,46.80
2018-08-06T20:12:45.336Z,47.10
2018-08-06T20:15:18.786Z,47.10
2018-08-06T20:17:48.002Z,46.50
2018-08-06T20:20:16.409Z,47.00
2018-08-06T20:22:45.157Z,47.70
2018-08-06T20:25:16.941Z,47.40
2018-08-06T20:27:47.790Z,47.60
2018-08-06T20:30:17.876Z,48.30
2018-08-06T20:32:46.323Z,48.70
2018-08-06T20:35:15.914Z,49.00
2018-08-06T20:37:44.303Z,49.10
2018-08-06T20:40:12.880Z,49.50
2018-08-06T20:42:42.525Z,50.20
2018-08-06T20:45:13.562Z,50.20
2018-08-06T20:47:42.489Z,50.70
2018-08-06T20:50:14.934Z,50.30
2018-08-06T20:52:43.629Z,50.20
2018-08-06T20:55:12.359Z,50.00
2018-08-06T20:57:41.132Z,49.90
2018-08-06T21:00:14.813Z,50.00
2018-08-06T21:02:43.287Z,50.00
2018-08-06T21:05:11.540Z,50.30
2018-08-06T21:07:40.370Z,50.30
2018-08-06T21:10:10.280Z,49.60
2018-08-06T21:12:38.825Z,49.70
2018-08-06T21:15:07.961Z,50.20
2018-08-06T21:17:36.856Z,49.60
2018-08-06T21:20:07.107Z,50.30
2018-08-06T21:22:35.468Z,50.60
2018-08-06T21:25:04.131Z,51.00
2018-08-06T21:27:32.482Z,51.70
2018-08-06T21:30:00.867Z,52.20
2018-08-06T21:32:29.254Z,52.90
2018-08-06T21:34:57.648Z,52.60
2018-08-06T21:37:26.033Z,52.20
2018-08-06T21:39:54.407Z,52.40
2018-08-06T21:42:22.826Z,52.60
2018-08-06T21:44:51.177Z,52.70
2018-08-06T21:47:19.550Z,53.00
2018-08-06T21:49:47.930Z,53.30
2018-08-06T21:52:16.297Z,53.10
2018-08-06T21:54:44.630Z,53.40
2018-08-06T21:57:12.963Z,53.30
2018-08-06T21:59:41.294Z,53.20
2018-08-06T22:02:09.673Z,53.90
2018-08-06T22:04:38.105Z,53.70
2018-08-06T22:07:06.541Z,53.60
2018-08-06T22:09:34.946Z,53.60
2018-08-06T22:12:03.332Z,54.50
2018-08-06T22:14:31.705Z,53.60
2018-08-06T22:17:00.088Z,54.00
2018-08-06T22:19:28.472Z,53.70
2018-08-06T22:21:56.867Z,53.90
2018-08-06T22:24:25.217Z,54.10
2018-08-06T22:26:53.596Z,54.00
2018-08-06T22:31:50.109Z,54.20
2018-08-06T22:34:18.458Z,54.60
2018-08-06T22:36:46.817Z,54.30
2018-08-06T22:39:15.190Z,54.50
2018-08-06T22:41:43.517Z,54.80
2018-08-06T22:44:11.851Z,55.30
2018-08-06T22:46:40.162Z,55.80
2018-08-06T22:49:08.497Z,56.10
2018-08-06T22:54:05.054Z,55.00
2018-08-06T22:56:33.386Z,54.80
2018-08-06T22:59:02.117Z,54.50
2018-08-06T23:01:30.412Z,54.90
2018-08-06T23:03:58.761Z,56.30
2018-08-06T23:06:27.086Z,56.80
2018-08-06T23:08:55.632Z,58.00
2018-08-06T23:11:23.796Z,58.50
2018-08-06T23:13:52.139Z,57.90
2018-08-06T23:16:20.469Z,58.00
2018-08-06T23:18:48.833Z,58.70
2018-08-06T23:21:17.239Z,59.20
2018-08-06T23:23:45.542Z,59.20
2018-08-06T23:26:13.959Z,60.40
2018-08-06T23:28:42.269Z,60.90
2018-08-06T23:31:10.593Z,61.00
2018-08-06T23:33:38.962Z,62.00
2018-08-06T23:36:07.298Z,62.10
2018-08-06T23:38:35.632Z,62.50
2018-08-06T23:41:04.006Z,62.80
2018-08-06T23:43:32.400Z,63.30
2018-08-06T23:46:00.691Z,63.90
2018-08-06T23:48:28.986Z,64.20
2018-08-06T23:53:25.325Z,65.00
2018-08-06T23:55:53.689Z,64.90
2018-08-06T23:58:22.042Z,65.30
